Algoma Mariner — CFN5517 — position and weather

sailwx.info

Track history (hours):
 
Tides and Currents Weather Stations Pressure Air Temp Water Temp Dewpoint Dewpoint Depression Visibility Wind Speed Wind Dir Waves Ship Positions

Algoma Mariner

Last reported at 2014-Oct-29 18:16 UTC. Time now 2014-Oct-30 23:50 UTC.
Position N 46°30' W 072°14'.

Length 225 m; draft 7.3 m.

Type: Cargo ship. MMSI: 316014050.

Date/timePositionNaut miles runAvg speedWind from/ knotsBaromVisibWave heightAir tempDewpointWater temp
2014-Oct-29 18:16N 46°30' W 072°14'1013.6
2014-Oct-29 17:33N 46°24' W 072°24'1313.2
2014-Oct-29 16:34N 46°16' W 072°39'1312.1
2014-Oct-29 15:29N 46°10' W 072°56'1412.8
2014-Oct-29 14:22N 46°00' W 073°11'1012.8
2014-Oct-29 13:32N 45°50' W 073°17'1 0.5
2014-Oct-29 12:34N 45°50' W 073°17'0 0.0
2014-Oct-29 11:34N 45°50' W 073°17'0 0.0
2014-Oct-29 10:34N 45°50' W 073°17'0 0.0
2014-Oct-29 09:34N 45°50' W 073°17'0 0.0
2014-Oct-29 08:34N 45°50' W 073°17'0 0.0
2014-Oct-29 07:33N 45°50' W 073°17'0 0.0
2014-Oct-29 06:34N 45°50' W 073°17'0 0.0
2014-Oct-29 05:33N 45°50' W 073°17'0 0.0
2014-Oct-29 04:34N 45°50' W 073°17'0 0.0
2014-Oct-29 03:34N 45°50' W 073°17'3 2.6
2014-Oct-29 02:34N 45°52' W 073°15'5 4.7
2014-Oct-29 01:33N 45°57' W 073°13'8 7.2
2014-Oct-29 00:22N 46°04' W 073°05'20 9.4
2014-Oct-28 22:13N 46°16' W 072°42'6 8.5
2014-Oct-28 21:34N 46°18' W 072°35'7 7.1
2014-Oct-28 20:34N 46°23' W 072°27'7 7.3
2014-Oct-28 19:33N 46°26' W 072°18'7 6.9
2014-Oct-28 18:33N 46°32' W 072°12'7 5.9
2014-Oct-28 17:19N 46°35' W 072°02'25711.5
2014-Oct-27 19:00N 49°18' W 067°06'   010 / 151007.0 5.4 1.0 7.0 11.0
Track history (hours):
 
Tides and Currents Weather Stations Pressure Air Temp Water Temp Dewpoint Dewpoint Depression Visibility Wind Speed Wind Dir Waves Ship Positions

Algoma Mariner

Last reported at 2014-Oct-29 18:16 UTC. Time now 2014-Oct-30 23:50 UTC.
Position N 46°30' W 072°14'.

Length 225 m; draft 7.3 m.

Type: Cargo ship. MMSI: 316014050.

Date/timePositionNaut miles runAvg speedWind from/ knotsBaromVisibWave heightAir tempDewpointWater temp
2014-Oct-29 18:16N 46°30' W 072°14'1013.6
2014-Oct-29 17:33N 46°24' W 072°24'1313.2
2014-Oct-29 16:34N 46°16' W 072°39'1312.1
2014-Oct-29 15:29N 46°10' W 072°56'1412.8
2014-Oct-29 14:22N 46°00' W 073°11'1012.8
2014-Oct-29 13:32N 45°50' W 073°17'1 0.5
2014-Oct-29 12:34N 45°50' W 073°17'0 0.0
2014-Oct-29 11:34N 45°50' W 073°17'0 0.0
2014-Oct-29 10:34N 45°50' W 073°17'0 0.0
2014-Oct-29 09:34N 45°50' W 073°17'0 0.0
2014-Oct-29 08:34N 45°50' W 073°17'0 0.0
2014-Oct-29 07:33N 45°50' W 073°17'0 0.0
2014-Oct-29 06:34N 45°50' W 073°17'0 0.0
2014-Oct-29 05:33N 45°50' W 073°17'0 0.0
2014-Oct-29 04:34N 45°50' W 073°17'0 0.0
2014-Oct-29 03:34N 45°50' W 073°17'3 2.6
2014-Oct-29 02:34N 45°52' W 073°15'5 4.7
2014-Oct-29 01:33N 45°57' W 073°13'8 7.2
2014-Oct-29 00:22N 46°04' W 073°05'20 9.4
2014-Oct-28 22:13N 46°16' W 072°42'6 8.5
2014-Oct-28 21:34N 46°18' W 072°35'7 7.1
2014-Oct-28 20:34N 46°23' W 072°27'7 7.3
2014-Oct-28 19:33N 46°26' W 072°18'7 6.9
2014-Oct-28 18:33N 46°32' W 072°12'7 5.9
2014-Oct-28 17:19N 46°35' W 072°02'25711.5
2014-Oct-27 19:00N 49°18' W 067°06'   010 / 151007.0 5.4 1.0 7.0 11.0

Dump ship's entire track history